createdAt,value
2023-02-16T00:00:51.993Z,13.82
2023-02-16T00:03:37.349Z,15.55
2023-02-16T00:06:26.932Z,14.05
2023-02-16T00:09:12.558Z,12.35
2023-02-16T00:12:18.532Z,12.98
2023-02-16T00:15:18.446Z,13.52
2023-02-16T00:18:06.000Z,12.23
2023-02-16T00:20:51.476Z,12.88
2023-02-16T00:23:36.915Z,14.05
2023-02-16T00:26:25.441Z,14.85
2023-02-16T00:29:16.230Z,12.35
2023-02-16T00:32:03.977Z,12.30
2023-02-16T00:34:49.132Z,13.65
2023-02-16T00:37:34.628Z,14.60
2023-02-16T00:40:19.974Z,12.05
2023-02-16T00:43:05.685Z,12.18
2023-02-16T00:45:51.163Z,13.63
2023-02-16T00:48:36.612Z,13.80
2023-02-16T00:51:26.108Z,12.60
2023-02-16T00:54:11.996Z,13.07
2023-02-16T00:56:57.741Z,12.40
2023-02-16T00:59:42.921Z,14.32
2023-02-16T01:02:29.122Z,12.48
2023-02-16T01:05:14.930Z,13.88
2023-02-16T01:08:19.330Z,13.05
2023-02-16T01:11:07.487Z,14.57
2023-02-16T01:13:55.265Z,12.38
2023-02-16T01:16:42.378Z,12.95
2023-02-16T01:19:27.392Z,13.50
2023-02-16T01:22:13.046Z,12.25
2023-02-16T01:24:58.419Z,12.07
2023-02-16T01:27:44.647Z,12.07
2023-02-16T01:30:30.016Z,13.40
2023-02-16T01:33:15.107Z,11.60
2023-02-16T01:36:00.423Z,13.27
2023-02-16T01:38:45.835Z,13.35
2023-02-16T01:42:06.979Z,12.27
2023-02-16T01:44:58.927Z,11.75
2023-02-16T01:47:58.420Z,12.90
2023-02-16T01:51:12.527Z,13.55
2023-02-16T01:54:30.484Z,14.07
2023-02-16T01:57:39.185Z,12.75
2023-02-16T02:00:54.650Z,12.02
2023-02-16T02:03:58.729Z,11.40
2023-02-16T02:06:44.086Z,11.82
2023-02-16T02:09:38.953Z,13.75
2023-02-16T02:12:31.995Z,12.23
2023-02-16T02:15:21.753Z,13.23
2023-02-16T02:18:06.884Z,12.65
2023-02-16T02:21:48.683Z,12.70
2023-02-16T02:24:52.857Z,11.70
2023-02-16T02:27:50.789Z,12.18
2023-02-16T02:30:53.095Z,12.15
2023-02-16T02:33:59.531Z,13.63
2023-02-16T02:37:02.661Z,13.32
2023-02-16T02:43:07.197Z,11.27
2023-02-16T02:46:16.695Z,10.88
2023-02-16T02:49:01.624Z,11.52
2023-02-16T02:51:47.519Z,11.25
2023-02-16T02:54:54.687Z,12.80
2023-02-16T02:58:04.296Z,10.70
2023-02-16T03:00:51.731Z,11.15
2023-02-16T03:03:45.883Z,11.07
2023-02-16T03:06:38.782Z,10.40
2023-02-16T03:09:25.310Z,11.63
2023-02-16T03:12:31.722Z,11.35
2023-02-16T03:15:17.567Z,11.95
2023-02-16T03:18:23.677Z,11.25
2023-02-16T03:21:28.684Z,10.80
2023-02-16T03:24:37.805Z,12.00
2023-02-16T03:27:48.281Z,13.60
2023-02-16T03:30:34.148Z,11.77
2023-02-16T03:33:20.614Z,11.75
2023-02-16T03:36:06.976Z,11.15
2023-02-16T03:38:54.336Z,10.63
2023-02-16T03:41:48.882Z,11.07
2023-02-16T03:44:33.960Z,9.43
2023-02-16T03:47:19.272Z,11.55
2023-02-16T03:50:04.905Z,10.95
2023-02-16T03:52:50.006Z,12.48
2023-02-16T03:55:44.500Z,12.10
2023-02-16T03:58:29.940Z,12.98
2023-02-16T04:01:15.257Z,11.63
2023-02-16T04:04:00.604Z,14.15
2023-02-16T04:06:45.794Z,11.55
2023-02-16T04:09:31.169Z,11.95
2023-02-16T04:12:34.950Z,12.05
2023-02-16T04:15:23.432Z,11.95
2023-02-16T04:18:08.870Z,12.75
2023-02-16T04:20:54.479Z,13.13
2023-02-16T04:23:39.397Z,11.57
2023-02-16T04:26:24.808Z,11.70
2023-02-16T04:29:10.036Z,11.95
2023-02-16T04:31:56.097Z,12.13
2023-02-16T04:34:41.307Z,11.73
2023-02-16T04:37:26.681Z,11.70
2023-02-16T04:40:13.959Z,12.82
2023-02-16T04:42:59.072Z,12.98
2023-02-16T04:45:44.437Z,11.73
2023-02-16T04:48:29.783Z,12.32
2023-02-16T04:51:15.243Z,12.70
2023-02-16T04:54:00.665Z,11.95
2023-02-16T04:56:47.228Z,11.07
2023-02-16T04:59:32.303Z,11.27
2023-02-16T05:02:17.608Z,12.15
2023-02-16T05:05:02.988Z,11.07
2023-02-16T05:07:48.369Z,10.57
2023-02-16T05:10:33.750Z,10.52
2023-02-16T05:13:37.762Z,11.50
2023-02-16T05:16:24.635Z,10.57
2023-02-16T05:19:09.869Z,11.77
2023-02-16T05:21:55.203Z,11.15
2023-02-16T05:24:41.413Z,11.30
2023-02-16T05:27:28.769Z,11.60
2023-02-16T05:30:14.773Z,10.70
2023-02-16T05:33:00.174Z,10.40
2023-02-16T05:35:45.633Z,10.75
2023-02-16T05:38:31.006Z,10.80
2023-02-16T05:41:23.493Z,11.45
2023-02-16T05:44:09.650Z,11.40
2023-02-16T05:46:55.002Z,10.93
2023-02-16T05:49:40.275Z,9.88
2023-02-16T05:52:25.559Z,11.13
2023-02-16T05:55:10.876Z,11.15
2023-02-16T05:57:56.468Z,9.98
2023-02-16T06:00:41.792Z,12.18
2023-02-16T06:03:27.810Z,10.48
2023-02-16T06:06:14.100Z,11.38
2023-02-16T06:08:59.362Z,11.90
2023-02-16T06:11:45.111Z,9.25
2023-02-16T06:14:30.436Z,10.75
2023-02-16T06:17:15.658Z,10.65
2023-02-16T06:20:01.090Z,10.65
2023-02-16T06:22:46.245Z,12.35
2023-02-16T06:25:31.518Z,11.65
2023-02-16T06:28:17.035Z,11.93
2023-02-16T06:31:02.817Z,11.52
2023-02-16T06:33:48.335Z,11.60
2023-02-16T06:36:34.233Z,11.60
2023-02-16T06:39:19.801Z,11.18
2023-02-16T06:42:05.328Z,12.15
2023-02-16T06:44:50.795Z,11.55
2023-02-16T06:47:37.077Z,10.43
2023-02-16T06:50:22.573Z,10.73
2023-02-16T06:53:08.062Z,12.05
2023-02-16T06:55:53.527Z,12.38
2023-02-16T06:58:39.482Z,10.05
2023-02-16T07:01:25.848Z,13.05
2023-02-16T07:04:11.385Z,10.70
2023-02-16T07:06:56.759Z,11.55
2023-02-16T07:09:42.142Z,10.60
2023-02-16T07:12:27.596Z,13.70
2023-02-16T07:15:13.056Z,13.35
2023-02-16T07:17:58.537Z,11.68
2023-02-16T07:20:43.690Z,14.38
2023-02-16T07:23:29.418Z,14.25
2023-02-16T07:26:14.514Z,15.82
2023-02-16T07:28:59.779Z,14.25
2023-02-16T07:31:45.332Z,12.98
2023-02-16T07:34:30.753Z,15.98
2023-02-16T07:37:16.169Z,14.95
2023-02-16T07:40:01.485Z,16.60
2023-02-16T07:42:46.834Z,13.23
2023-02-16T07:45:32.962Z,14.45
2023-02-16T07:48:18.314Z,13.98
2023-02-16T07:51:04.113Z,14.07
2023-02-16T07:53:50.047Z,15.13
2023-02-16T07:56:35.472Z,15.73
2023-02-16T07:59:20.509Z,15.57
2023-02-16T08:02:06.098Z,14.55
2023-02-16T08:04:54.309Z,15.90
2023-02-16T08:07:40.845Z,14.63
2023-02-16T08:10:26.512Z,15.30
2023-02-16T08:13:11.411Z,16.83
2023-02-16T08:15:56.792Z,15.65
2023-02-16T08:18:42.454Z,16.10
2023-02-16T08:21:29.888Z,16.38
2023-02-16T08:24:15.309Z,15.90
2023-02-16T08:27:03.779Z,15.52
2023-02-16T08:29:48.898Z,15.75
2023-02-16T08:32:34.301Z,16.90
2023-02-16T08:35:20.351Z,17.00
2023-02-16T08:38:05.843Z,15.52
2023-02-16T08:40:51.497Z,14.82
2023-02-16T08:43:36.461Z,16.17
2023-02-16T08:46:22.829Z,16.90
2023-02-16T08:49:09.642Z,16.50
2023-02-16T08:51:57.896Z,17.83
2023-02-16T08:54:43.880Z,15.10
2023-02-16T08:57:29.044Z,17.10
2023-02-16T09:00:33.506Z,16.50
2023-02-16T09:03:19.635Z,16.50
2023-02-16T09:06:06.372Z,17.52
2023-02-16T09:08:53.866Z,16.88
2023-02-16T09:11:39.410Z,16.88
2023-02-16T09:14:24.827Z,15.40
2023-02-16T09:17:10.160Z,16.52
2023-02-16T09:19:55.547Z,17.77
2023-02-16T09:25:36.157Z,17.73
2023-02-16T09:28:21.498Z,15.70
2023-02-16T09:31:10.414Z,15.50
2023-02-16T09:34:00.139Z,17.67
2023-02-16T09:36:47.233Z,18.85
2023-02-16T09:39:32.512Z,18.05
2023-02-16T09:42:37.521Z,18.27
2023-02-16T09:45:24.931Z,17.02
2023-02-16T09:48:33.881Z,17.85
2023-02-16T09:51:33.742Z,17.63
2023-02-16T09:54:45.230Z,18.45
2023-02-16T09:57:43.046Z,17.40
2023-02-16T10:00:34.273Z,17.75
2023-02-16T10:03:41.320Z,16.38
2023-02-16T10:06:55.873Z,17.58
2023-02-16T10:09:47.185Z,17.25
2023-02-16T10:12:41.209Z,16.80
2023-02-16T10:15:29.440Z,17.77
2023-02-16T10:18:28.260Z,16.88
2023-02-16T10:21:18.501Z,17.63
2023-02-16T10:24:06.689Z,17.83
2023-02-16T10:27:02.513Z,18.35
2023-02-16T10:29:47.896Z,16.63
2023-02-16T10:32:44.081Z,17.52
2023-02-16T10:35:49.805Z,16.50
2023-02-16T10:38:57.245Z,18.35
2023-02-16T10:41:49.388Z,17.92
2023-02-16T10:44:43.770Z,17.15
2023-02-16T10:47:37.757Z,16.40
2023-02-16T10:50:47.797Z,17.00
2023-02-16T10:53:51.209Z,17.83
2023-02-16T10:59:38.179Z,17.48
2023-02-16T11:02:39.611Z,17.98
2023-02-16T11:05:39.108Z,18.25
2023-02-16T11:08:25.703Z,17.42
2023-02-16T11:11:12.155Z,17.27
2023-02-16T11:14:00.333Z,19.63
2023-02-16T11:16:46.580Z,17.50
2023-02-16T11:19:33.341Z,16.70
2023-02-16T11:22:37.098Z,17.10
2023-02-16T11:25:25.813Z,17.23
2023-02-16T11:28:12.330Z,17.27
2023-02-16T11:31:18.723Z,16.55
2023-02-16T11:34:07.560Z,17.30
2023-02-16T11:37:06.332Z,17.08
2023-02-16T11:40:04.470Z,17.15
2023-02-16T11:42:53.392Z,17.20
2023-02-16T11:45:38.424Z,16.95
2023-02-16T11:48:29.778Z,16.73
2023-02-16T11:51:28.263Z,16.60
2023-02-16T11:54:36.634Z,17.38
2023-02-16T11:57:31.686Z,16.92
2023-02-16T12:00:20.002Z,15.70
2023-02-16T12:03:52.533Z,17.30
2023-02-16T12:06:51.772Z,17.73
2023-02-16T12:09:46.766Z,47.25
2023-02-16T12:12:35.017Z,17.98
2023-02-16T12:15:27.364Z,18.05
2023-02-16T12:18:18.474Z,17.58
2023-02-16T12:21:21.879Z,17.40
2023-02-16T12:24:19.111Z,18.05
2023-02-16T12:27:37.481Z,18.10
2023-02-16T12:30:36.798Z,17.38
2023-02-16T12:33:53.845Z,16.65
2023-02-16T12:36:52.202Z,17.10
2023-02-16T12:40:14.935Z,16.67
2023-02-16T12:43:14.942Z,18.50
2023-02-16T12:46:18.723Z,17.80
2023-02-16T12:49:16.337Z,19.92
2023-02-16T12:52:10.932Z,20.75
2023-02-16T12:55:08.048Z,17.73
2023-02-16T12:58:04.372Z,16.67
2023-02-16T13:00:58.571Z,18.25
2023-02-16T13:03:56.336Z,18.38
2023-02-16T13:07:06.192Z,17.60
2023-02-16T13:10:17.097Z,17.65
2023-02-16T13:13:16.143Z,16.42
2023-02-16T13:16:30.429Z,16.52
2023-02-16T13:19:16.894Z,18.95
2023-02-16T13:22:26.941Z,17.67
2023-02-16T13:25:56.712Z,16.48
2023-02-16T13:29:23.355Z,17.58
2023-02-16T13:32:30.163Z,17.83
2023-02-16T13:35:42.933Z,17.27
2023-02-16T13:38:40.872Z,17.23
2023-02-16T13:42:04.060Z,18.23
2023-02-16T13:44:53.679Z,18.20
2023-02-16T13:47:40.223Z,17.35
2023-02-16T13:50:33.083Z,17.50
2023-02-16T13:53:20.929Z,16.98
2023-02-16T13:56:17.289Z,18.10
2023-02-16T13:59:18.421Z,18.48
2023-02-16T14:02:09.290Z,16.60
2023-02-16T14:04:57.353Z,15.77
2023-02-16T14:07:43.321Z,17.55
2023-02-16T14:10:57.234Z,15.82
2023-02-16T14:13:42.212Z,16.92
2023-02-16T14:16:30.433Z,18.45
2023-02-16T14:19:15.600Z,17.40
2023-02-16T14:22:11.493Z,17.55
2023-02-16T14:25:00.556Z,18.65
2023-02-16T14:27:59.592Z,18.27
2023-02-16T14:30:56.883Z,17.77
2023-02-16T14:33:51.051Z,18.05
2023-02-16T14:37:14.511Z,17.58
2023-02-16T14:40:39.361Z,19.60
2023-02-16T14:43:33.143Z,19.35
2023-02-16T14:46:30.320Z,18.73
2023-02-16T14:49:40.166Z,18.38
2023-02-16T14:53:10.590Z,20.63
2023-02-16T14:56:24.748Z,19.65
2023-02-16T14:59:38.386Z,19.00
2023-02-16T15:02:28.190Z,18.42
2023-02-16T15:05:20.105Z,18.98
2023-02-16T15:08:22.443Z,19.17
2023-02-16T15:11:23.669Z,18.90
2023-02-16T15:14:11.352Z,17.40
2023-02-16T15:16:58.172Z,18.88
2023-02-16T15:19:43.868Z,20.05
2023-02-16T15:22:29.855Z,18.85
2023-02-16T15:25:24.214Z,18.85
2023-02-16T15:28:12.285Z,17.35
2023-02-16T15:31:05.596Z,17.98
2023-02-16T15:33:56.813Z,18.83
2023-02-16T15:36:44.462Z,21.15
2023-02-16T15:39:48.409Z,18.58
2023-02-16T15:42:43.562Z,19.50
2023-02-16T15:45:32.910Z,19.63
2023-02-16T15:48:24.992Z,19.83
2023-02-16T15:51:34.024Z,19.23
2023-02-16T15:54:32.107Z,18.98
2023-02-16T15:57:31.315Z,18.05
2023-02-16T16:00:21.931Z,27.33
2023-02-16T16:03:09.012Z,22.33
2023-02-16T16:06:04.954Z,19.58
2023-02-16T16:08:51.330Z,20.73
2023-02-16T16:11:37.801Z,20.25
2023-02-16T16:14:25.014Z,21.13
2023-02-16T16:17:15.553Z,19.98
2023-02-16T16:20:21.807Z,20.85
2023-02-16T16:23:25.924Z,21.58
2023-02-16T16:26:19.400Z,21.67
2023-02-16T16:29:24.627Z,19.27
2023-02-16T16:32:26.858Z,19.75
2023-02-16T16:35:22.872Z,18.58
2023-02-16T16:38:25.247Z,19.00
2023-02-16T16:41:27.582Z,18.50
2023-02-16T16:44:33.619Z,19.45
2023-02-16T16:47:36.035Z,17.90
2023-02-16T16:50:21.143Z,19.02
2023-02-16T16:53:31.336Z,18.63
2023-02-16T16:56:16.333Z,20.15
2023-02-16T16:59:01.920Z,20.42
2023-02-16T17:01:49.890Z,21.58
2023-02-16T17:04:35.470Z,19.73
2023-02-16T17:07:20.875Z,17.77
2023-02-16T17:10:07.402Z,17.48
2023-02-16T17:12:55.876Z,19.52
2023-02-16T17:15:47.689Z,22.27
2023-02-16T17:18:35.109Z,26.80
2023-02-16T17:21:20.663Z,20.88
2023-02-16T17:24:07.250Z,18.50
2023-02-16T17:26:52.589Z,19.48
2023-02-16T17:29:38.087Z,18.80
2023-02-16T17:32:24.282Z,19.85
2023-02-16T17:35:09.642Z,21.02
2023-02-16T17:37:55.119Z,21.08
2023-02-16T17:40:41.728Z,22.20
2023-02-16T17:43:27.604Z,20.95
2023-02-16T17:46:13.674Z,19.80
2023-02-16T17:48:58.845Z,17.73
2023-02-16T17:51:44.157Z,18.35
2023-02-16T17:54:29.625Z,19.13
2023-02-16T17:57:14.965Z,19.92
2023-02-16T18:00:00.401Z,21.45
2023-02-16T18:02:47.215Z,21.92
2023-02-16T18:05:32.589Z,21.10
2023-02-16T18:08:18.245Z,20.60
2023-02-16T18:11:03.688Z,18.58
2023-02-16T18:13:48.955Z,19.20
2023-02-16T18:16:34.278Z,17.45
2023-02-16T18:19:19.963Z,18.13
2023-02-16T18:22:05.393Z,17.25
2023-02-16T18:24:50.956Z,17.08
2023-02-16T18:27:35.991Z,17.52
2023-02-16T18:30:21.911Z,18.58
2023-02-16T18:33:06.942Z,19.55
2023-02-16T18:35:55.056Z,17.90
2023-02-16T18:38:40.470Z,19.98
2023-02-16T18:41:25.786Z,18.20
2023-02-16T18:44:11.951Z,20.20
2023-02-16T18:46:57.239Z,18.70
2023-02-16T18:49:42.541Z,16.67
2023-02-16T18:52:27.795Z,18.60
2023-02-16T18:55:15.120Z,17.73
2023-02-16T18:58:02.500Z,19.05
2023-02-16T19:00:48.625Z,19.83
2023-02-16T19:03:33.654Z,21.58
2023-02-16T19:06:19.065Z,21.40
2023-02-16T19:09:04.406Z,19.25
2023-02-16T19:11:49.865Z,18.50
2023-02-16T19:14:35.293Z,18.80
2023-02-16T19:17:20.698Z,22.10
2023-02-16T19:20:09.743Z,19.23
2023-02-16T19:22:55.451Z,23.80
2023-02-16T19:25:40.792Z,23.52
2023-02-16T19:28:26.429Z,22.88
2023-02-16T19:31:19.165Z,23.58
2023-02-16T19:34:04.746Z,22.23
2023-02-16T19:36:50.217Z,23.95
2023-02-16T19:39:35.646Z,22.42
2023-02-16T19:42:21.394Z,20.35
2023-02-16T19:45:06.865Z,22.20
2023-02-16T19:47:52.258Z,22.38
2023-02-16T19:50:37.624Z,21.75
2023-02-16T19:53:23.159Z,22.27
2023-02-16T19:56:13.385Z,24.40
2023-02-16T19:58:59.962Z,20.85
2023-02-16T20:01:45.173Z,17.70
2023-02-16T20:04:30.440Z,20.77
2023-02-16T20:07:15.937Z,20.38
2023-02-16T20:10:01.304Z,19.40
2023-02-16T20:12:46.575Z,20.10
2023-02-16T20:15:32.012Z,20.52
2023-02-16T20:18:17.459Z,18.63
2023-02-16T20:21:09.144Z,18.20
2023-02-16T20:24:02.911Z,20.33
2023-02-16T20:26:49.067Z,20.70
2023-02-16T20:29:34.202Z,22.45
2023-02-16T20:32:19.685Z,21.90
2023-02-16T20:35:07.352Z,20.58
2023-02-16T20:37:53.823Z,19.20
2023-02-16T20:40:39.051Z,20.38
2023-02-16T20:43:24.607Z,19.63
2023-02-16T20:46:11.767Z,20.75
2023-02-16T20:48:57.252Z,18.27
2023-02-16T20:51:42.720Z,18.98
2023-02-16T20:54:27.970Z,20.55
2023-02-16T20:57:26.164Z,20.45
2023-02-16T21:00:18.483Z,18.38
2023-02-16T21:03:03.737Z,19.67
2023-02-16T21:05:49.282Z,17.60
2023-02-16T21:08:34.658Z,19.40
2023-02-16T21:11:21.987Z,19.52
2023-02-16T21:14:10.178Z,19.42
2023-02-16T21:16:55.473Z,19.48
2023-02-16T21:19:40.885Z,17.35
2023-02-16T21:22:26.268Z,18.48
2023-02-16T21:25:11.726Z,17.17
2023-02-16T21:27:57.245Z,17.70
2023-02-16T21:30:43.061Z,17.45
2023-02-16T21:33:28.336Z,19.75
2023-02-16T21:36:20.410Z,19.73
2023-02-16T21:39:06.106Z,18.95
2023-02-16T21:41:51.203Z,18.50
2023-02-16T21:44:43.058Z,19.05
2023-02-16T21:47:46.612Z,19.13
2023-02-16T21:50:36.309Z,18.75
2023-02-16T21:53:21.275Z,17.23
2023-02-16T21:56:17.680Z,19.95
2023-02-16T21:59:05.042Z,18.30
2023-02-16T22:01:51.582Z,18.58
2023-02-16T22:04:36.945Z,19.02
2023-02-16T22:07:22.347Z,18.50
2023-02-16T22:10:09.194Z,17.90
2023-02-16T22:12:55.627Z,17.05
2023-02-16T22:15:40.987Z,16.73
2023-02-16T22:18:26.525Z,18.25
2023-02-16T22:21:12.493Z,18.38
2023-02-16T22:23:58.155Z,18.52
2023-02-16T22:26:44.245Z,18.15
2023-02-16T22:29:29.389Z,18.52
2023-02-16T22:32:14.913Z,18.30
2023-02-16T22:35:00.133Z,17.00
2023-02-16T22:37:45.761Z,16.75
2023-02-16T22:40:31.124Z,17.23
2023-02-16T22:43:16.390Z,18.70
2023-02-16T22:46:07.444Z,18.27
2023-02-16T22:48:52.963Z,18.33
2023-02-16T22:51:38.640Z,17.95
2023-02-16T22:54:24.712Z,17.38
2023-02-16T22:57:10.123Z,18.88
2023-02-16T22:59:55.260Z,18.02
2023-02-16T23:02:40.556Z,16.75
2023-02-16T23:05:25.938Z,16.45
2023-02-16T23:08:11.974Z,16.20
2023-02-16T23:11:00.063Z,18.67
2023-02-16T23:13:45.817Z,17.02
2023-02-16T23:16:31.218Z,16.88
2023-02-16T23:19:19.526Z,17.38
2023-02-16T23:22:04.660Z,16.77
2023-02-16T23:25:10.093Z,17.20
2023-02-16T23:27:55.705Z,16.30
2023-02-16T23:30:46.346Z,16.33
2023-02-16T23:33:32.108Z,17.02
2023-02-16T23:36:18.147Z,17.05
2023-02-16T23:39:06.391Z,16.00
2023-02-16T23:41:51.828Z,17.48
2023-02-16T23:44:37.253Z,17.80
2023-02-16T23:47:23.009Z,16.17
2023-02-16T23:50:08.553Z,17.83
2023-02-16T23:52:54.028Z,14.73
2023-02-16T23:55:39.353Z,15.40
2023-02-16T23:58:34.179Z,17.50
